createdAt,value
2023-01-24T00:03:00.128Z,81.34
2023-01-24T00:06:02.917Z,80.72
2023-01-24T00:09:05.873Z,80.59
2023-01-24T00:12:08.497Z,80.97
2023-01-24T00:15:11.779Z,80.68
2023-01-24T00:18:14.394Z,80.74
2023-01-24T00:21:20.347Z,80.67
2023-01-24T00:24:23.035Z,80.82
2023-01-24T00:27:25.686Z,80.63
2023-01-24T00:30:28.546Z,80.86
2023-01-24T00:33:33.564Z,81.07
2023-01-24T00:36:36.095Z,80.92
2023-01-24T00:39:39.132Z,81.36
2023-01-24T00:42:42.100Z,80.73
2023-01-24T00:45:46.387Z,81.13
2023-01-24T00:48:48.811Z,81.45
2023-01-24T00:51:51.792Z,81.60
2023-01-24T00:54:54.676Z,81.29
2023-01-24T00:57:57.823Z,81.67
2023-01-24T01:01:03.358Z,81.47
2023-01-24T01:04:06.504Z,81.46
2023-01-24T01:07:09.184Z,81.47
2023-01-24T01:10:12.943Z,81.42
2023-01-24T01:13:15.525Z,81.54
2023-01-24T01:16:20.318Z,81.71
2023-01-24T01:19:22.999Z,81.78
2023-01-24T01:22:26.116Z,81.56
2023-01-24T01:25:28.976Z,81.25
2023-01-24T01:28:32.147Z,81.53
2023-01-24T01:31:36.292Z,81.71
2023-01-24T01:34:39.027Z,81.66
2023-01-24T01:37:41.766Z,81.37
2023-01-24T01:40:45.673Z,81.42
2023-01-24T01:44:07.059Z,81.78
2023-01-24T01:47:24.475Z,81.78
2023-01-24T01:50:38.061Z,81.77
2023-01-24T01:54:03.762Z,82.09
2023-01-24T01:57:10.904Z,82.50
2023-01-24T02:00:18.462Z,82.34
2023-01-24T02:03:41.577Z,81.93
2023-01-24T02:06:57.608Z,82.37
2023-01-24T02:10:01.173Z,82.29
2023-01-24T02:13:04.099Z,81.88
2023-01-24T02:16:07.894Z,82.35
2023-01-24T02:19:21.114Z,82.20
2023-01-24T02:25:43.195Z,83.07
2023-01-24T02:28:54.988Z,83.75
2023-01-24T02:32:03.496Z,84.29
2023-01-24T02:35:06.625Z,84.71
2023-01-24T02:38:26.366Z,84.66
2023-01-24T02:41:44.001Z,84.76
2023-01-24T02:45:17.914Z,85.02
2023-01-24T02:48:20.736Z,85.03
2023-01-24T02:51:42.126Z,85.27
2023-01-24T02:54:44.563Z,84.92
2023-01-24T02:58:06.394Z,84.86
2023-01-24T03:01:11.328Z,85.00
2023-01-24T03:04:14.513Z,84.48
2023-01-24T03:07:17.384Z,84.34
2023-01-24T03:10:27.666Z,84.06
2023-01-24T03:13:49.548Z,84.25
2023-01-24T03:17:10.690Z,84.43
2023-01-24T03:20:32.725Z,84.61
2023-01-24T03:23:54.261Z,84.06
2023-01-24T03:27:15.352Z,83.87
2023-01-24T03:30:37.188Z,83.40
2023-01-24T03:33:58.768Z,83.32
2023-01-24T03:37:02.582Z,83.84
2023-01-24T03:40:13.603Z,83.98
2023-01-24T03:43:16.752Z,83.96
2023-01-24T03:46:19.777Z,83.57
2023-01-24T03:49:50.814Z,83.58
2023-01-24T03:52:54.055Z,83.67
2023-01-24T03:56:02.523Z,83.52
2023-01-24T03:59:11.154Z,83.42
2023-01-24T04:02:16.304Z,83.28
2023-01-24T04:05:19.029Z,83.08
2023-01-24T04:08:22.413Z,83.02
2023-01-24T04:11:26.049Z,83.04
2023-01-24T04:14:34.473Z,83.01
2023-01-24T04:17:45.984Z,82.97
2023-01-24T04:20:52.026Z,82.86
2023-01-24T04:23:54.975Z,82.81
2023-01-24T04:26:58.655Z,82.69
2023-01-24T04:30:08.420Z,82.59
2023-01-24T04:33:13.195Z,82.61
2023-01-24T04:36:16.508Z,82.49
2023-01-24T04:39:23.185Z,82.50
2023-01-24T04:42:52.164Z,82.35
2023-01-24T04:46:00.057Z,82.45
2023-01-24T04:49:15.828Z,82.42
2023-01-24T04:52:22.889Z,82.43
2023-01-24T04:55:33.737Z,82.29
2023-01-24T04:58:36.828Z,82.45
2023-01-24T05:01:40.709Z,82.58
2023-01-24T05:04:52.544Z,82.52
2023-01-24T05:07:55.903Z,82.23
2023-01-24T05:11:05.269Z,82.16
2023-01-24T05:14:12.384Z,82.57
2023-01-24T05:17:15.365Z,82.45
2023-01-24T05:20:18.774Z,82.48
2023-01-24T05:23:21.867Z,82.41
2023-01-24T05:26:27.162Z,82.22
2023-01-24T05:29:30.193Z,81.87
2023-01-24T05:32:35.807Z,82.26
2023-01-24T05:35:41.934Z,82.21
2023-01-24T05:38:45.691Z,81.67
2023-01-24T05:41:48.597Z,81.44
2023-01-24T05:44:53.054Z,81.62
2023-01-24T05:47:56.564Z,81.43
2023-01-24T05:51:05.714Z,81.46
2023-01-24T05:54:08.653Z,81.60
2023-01-24T05:57:29.748Z,81.39
2023-01-24T06:00:47.418Z,81.43
2023-01-24T06:04:06.872Z,81.09
2023-01-24T06:07:10.521Z,81.44
2023-01-24T06:10:14.795Z,81.32
2023-01-24T06:13:27.994Z,81.68
2023-01-24T06:16:30.894Z,81.86
2023-01-24T06:19:33.950Z,81.77
2023-01-24T06:22:51.967Z,81.71
2023-01-24T06:25:56.864Z,81.65
2023-01-24T06:28:59.645Z,81.66
2023-01-24T06:32:27.541Z,82.02
2023-01-24T06:35:37.460Z,81.37
2023-01-24T06:38:40.908Z,81.36
2023-01-24T06:41:44.206Z,81.44
2023-01-24T06:44:47.524Z,81.14
2023-01-24T06:47:50.103Z,80.67
2023-01-24T06:50:54.457Z,80.35
2023-01-24T06:53:57.165Z,79.99
2023-01-24T06:56:59.688Z,80.05
2023-01-24T07:00:04.618Z,80.04
2023-01-24T07:03:08.911Z,80.42
2023-01-24T07:06:11.628Z,80.07
2023-01-24T07:09:14.460Z,80.21
2023-01-24T07:12:17.243Z,79.64
2023-01-24T07:15:19.835Z,79.36
2023-01-24T07:18:23.012Z,79.44
2023-01-24T07:21:25.787Z,79.44
2023-01-24T07:24:30.605Z,79.23
2023-01-24T07:27:33.361Z,78.92
2023-01-24T07:30:35.953Z,78.80
2023-01-24T07:33:38.474Z,78.77
2023-01-24T07:36:43.371Z,78.63
2023-01-24T07:39:45.965Z,78.61
2023-01-24T07:42:48.524Z,78.70
2023-01-24T07:45:52.887Z,78.81
2023-01-24T07:48:55.781Z,78.80
2023-01-24T07:52:01.899Z,78.39
2023-01-24T07:55:05.554Z,78.48
2023-01-24T07:58:08.041Z,78.87
2023-01-24T08:01:16.263Z,78.90
2023-01-24T08:04:19.235Z,78.37
2023-01-24T08:07:22.910Z,78.56
2023-01-24T08:10:25.789Z,78.09
2023-01-24T08:13:28.818Z,78.28
2023-01-24T08:16:31.415Z,77.67
2023-01-24T08:19:54.851Z,77.68
2023-01-24T08:22:59.209Z,77.63
2023-01-24T08:26:03.739Z,76.89
2023-01-24T08:29:06.216Z,76.63
2023-01-24T08:32:08.676Z,76.24
2023-01-24T08:35:11.370Z,76.09
2023-01-24T08:38:14.245Z,75.56
2023-01-24T08:41:16.709Z,75.20
2023-01-24T08:44:19.256Z,74.25
2023-01-24T08:47:22.380Z,74.50
2023-01-24T08:50:25.336Z,72.88
2023-01-24T08:53:29.549Z,71.37
2023-01-24T08:56:33.802Z,67.60
2023-01-24T08:59:36.753Z,65.23
2023-01-24T09:02:39.850Z,65.99
2023-01-24T09:05:42.850Z,64.65
2023-01-24T09:08:45.544Z,64.63
2023-01-24T09:11:49.577Z,61.40
2023-01-24T09:14:52.407Z,59.25
2023-01-24T09:17:55.198Z,57.89
2023-01-24T09:21:02.580Z,56.91
2023-01-24T09:24:05.415Z,59.05
2023-01-24T09:27:08.103Z,59.02
2023-01-24T09:30:11.587Z,59.22
2023-01-24T09:33:16.654Z,59.39
2023-01-24T09:36:19.187Z,60.21
2023-01-24T09:39:23.045Z,59.87
2023-01-24T09:42:42.590Z,58.82
2023-01-24T09:46:05.921Z,57.56
2023-01-24T09:49:09.341Z,58.18
2023-01-24T09:52:21.069Z,58.92
2023-01-24T09:55:32.516Z,57.59
2023-01-24T09:58:41.128Z,55.39
2023-01-24T10:01:44.056Z,54.84
2023-01-24T10:04:48.576Z,54.87
2023-01-24T10:08:14.278Z,55.24
2023-01-24T10:11:31.249Z,57.82
2023-01-24T10:15:18.548Z,57.17
2023-01-24T10:19:04.894Z,55.04
2023-01-24T10:22:33.150Z,52.93
2023-01-24T10:26:11.081Z,53.19
2023-01-24T10:29:21.520Z,52.78
2023-01-24T10:32:32.608Z,52.92
2023-01-24T10:35:58.331Z,52.04
2023-01-24T10:39:00.818Z,53.13
2023-01-24T10:42:15.612Z,51.74
2023-01-24T10:45:36.923Z,49.96
2023-01-24T10:48:54.792Z,48.34
2023-01-24T10:52:20.147Z,49.97
2023-01-24T10:55:25.433Z,49.70
2023-01-24T10:58:39.445Z,49.99
2023-01-24T11:01:50.644Z,49.73
2023-01-24T11:05:01.436Z,50.30
2023-01-24T11:08:05.610Z,53.03
2023-01-24T11:11:41.161Z,53.61
2023-01-24T11:14:49.841Z,55.04
2023-01-24T11:17:58.757Z,57.26
2023-01-24T11:21:13.796Z,55.85
2023-01-24T11:24:16.520Z,57.71
2023-01-24T11:27:21.732Z,57.04
2023-01-24T11:30:25.631Z,57.31
2023-01-24T11:33:37.892Z,58.46
2023-01-24T11:36:56.205Z,59.13
2023-01-24T11:40:17.421Z,60.38
2023-01-24T11:43:41.165Z,62.27
2023-01-24T11:46:57.990Z,63.17
2023-01-24T11:50:53.886Z,60.02
2023-01-24T11:54:29.091Z,57.69
2023-01-24T11:57:43.879Z,57.32
2023-01-24T12:00:53.868Z,57.52
2023-01-24T12:04:02.698Z,58.09
2023-01-24T12:07:46.825Z,60.06
2023-01-24T12:11:11.941Z,57.93
2023-01-24T12:14:23.872Z,59.16
2023-01-24T12:17:37.472Z,57.41
2023-01-24T12:21:06.500Z,57.92
2023-01-24T12:24:22.720Z,60.75
2023-01-24T12:27:27.714Z,62.52
2023-01-24T12:30:37.903Z,64.66
2023-01-24T12:34:18.726Z,63.23
2023-01-24T12:37:56.669Z,60.03
2023-01-24T12:41:32.584Z,56.84
2023-01-24T12:44:43.947Z,56.11
2023-01-24T12:47:55.623Z,54.35
2023-01-24T12:51:01.431Z,54.04
2023-01-24T12:54:23.121Z,54.67
2023-01-24T12:57:38.424Z,54.33
2023-01-24T13:00:55.168Z,55.56
2023-01-24T13:04:18.768Z,53.47
2023-01-24T13:07:50.561Z,51.99
2023-01-24T13:11:21.548Z,51.85
2023-01-24T13:14:27.912Z,50.45
2023-01-24T13:17:45.732Z,50.48
2023-01-24T13:21:15.554Z,51.84
2023-01-24T13:24:33.298Z,52.72
2023-01-24T13:28:00.396Z,53.74
2023-01-24T13:31:28.541Z,52.60
2023-01-24T13:34:38.495Z,53.41
2023-01-24T13:37:41.603Z,54.67
2023-01-24T13:40:59.634Z,55.38
2023-01-24T13:44:02.741Z,57.27
2023-01-24T13:47:14.012Z,55.79
2023-01-24T13:50:19.464Z,56.84
2023-01-24T13:54:00.305Z,56.94
2023-01-24T13:57:30.911Z,56.84
2023-01-24T14:00:34.792Z,57.99
2023-01-24T14:03:38.661Z,58.62
2023-01-24T14:06:44.509Z,58.77
2023-01-24T14:09:48.157Z,57.16
2023-01-24T14:12:55.411Z,58.57
2023-01-24T14:15:58.109Z,59.66
2023-01-24T14:19:08.549Z,59.90
2023-01-24T14:22:20.650Z,60.50
2023-01-24T14:25:48.455Z,60.38
2023-01-24T14:28:56.456Z,61.15
2023-01-24T14:32:01.515Z,62.17
2023-01-24T14:35:21.555Z,61.85
2023-01-24T14:38:24.126Z,63.42
2023-01-24T14:41:26.912Z,64.58
2023-01-24T14:44:36.471Z,65.11
2023-01-24T14:47:39.809Z,65.23
2023-01-24T14:50:42.546Z,65.40
2023-01-24T14:53:50.909Z,66.63
2023-01-24T14:56:53.594Z,67.95
2023-01-24T15:00:13.130Z,69.57
2023-01-24T15:03:19.894Z,70.77
2023-01-24T15:06:23.271Z,71.09
2023-01-24T15:09:26.555Z,71.60
2023-01-24T15:12:36.729Z,71.79
2023-01-24T15:15:40.367Z,72.12
2023-01-24T15:18:46.725Z,72.67
2023-01-24T15:21:51.498Z,73.28
2023-01-24T15:24:59.196Z,73.59
2023-01-24T15:28:27.315Z,73.29
2023-01-24T15:31:31.314Z,74.15
2023-01-24T15:34:33.939Z,74.35
2023-01-24T15:37:36.623Z,75.09
2023-01-24T15:41:02.320Z,75.39
2023-01-24T15:44:08.238Z,75.39
2023-01-24T15:47:39.306Z,75.47
2023-01-24T15:51:12.365Z,75.69
2023-01-24T15:54:15.557Z,75.76
2023-01-24T15:57:24.655Z,75.77
2023-01-24T16:00:27.708Z,75.77
2023-01-24T16:03:30.847Z,75.90
2023-01-24T16:06:33.418Z,76.14
2023-01-24T16:09:36.322Z,76.22
2023-01-24T16:12:39.801Z,76.67
2023-01-24T16:15:42.329Z,76.97
2023-01-24T16:18:45.038Z,76.79
2023-01-24T16:21:47.887Z,76.87
2023-01-24T16:24:50.450Z,77.14
2023-01-24T16:27:53.693Z,77.50
2023-01-24T16:31:03.262Z,77.35
2023-01-24T16:34:05.792Z,77.54
2023-01-24T16:37:09.896Z,77.61
2023-01-24T16:40:15.862Z,77.99
2023-01-24T16:43:21.571Z,78.02
2023-01-24T16:46:24.295Z,78.41
2023-01-24T16:49:28.453Z,78.56
2023-01-24T16:52:32.554Z,78.67
2023-01-24T16:55:38.861Z,78.88
2023-01-24T16:58:41.447Z,79.11
2023-01-24T17:01:44.470Z,79.13
2023-01-24T17:04:49.980Z,79.15
2023-01-24T17:07:52.665Z,79.00
2023-01-24T17:11:06.676Z,79.09
2023-01-24T17:14:09.504Z,79.33
2023-01-24T17:17:12.144Z,78.84
2023-01-24T17:20:15.526Z,79.56
2023-01-24T17:23:17.961Z,79.19
2023-01-24T17:26:20.670Z,79.41
2023-01-24T17:29:26.818Z,79.75
2023-01-24T17:32:31.509Z,79.42
2023-01-24T17:35:34.154Z,79.64
2023-01-24T17:38:37.217Z,79.75
2023-01-24T17:41:40.185Z,80.14
2023-01-24T17:44:43.105Z,80.07
2023-01-24T17:47:45.555Z,80.31
2023-01-24T17:50:49.209Z,80.52
2023-01-24T17:53:51.919Z,80.77
2023-01-24T17:56:54.795Z,81.15
2023-01-24T17:59:57.358Z,80.94
2023-01-24T18:03:00.248Z,80.81
2023-01-24T18:06:05.282Z,80.74
2023-01-24T18:09:08.411Z,80.92
2023-01-24T18:12:11.136Z,81.02
2023-01-24T18:15:14.278Z,81.01
2023-01-24T18:18:17.572Z,80.94
2023-01-24T18:21:23.530Z,81.05
2023-01-24T18:24:26.010Z,81.04
2023-01-24T18:27:29.390Z,81.30
2023-01-24T18:30:32.051Z,81.07
2023-01-24T18:33:35.900Z,81.46
2023-01-24T18:36:39.205Z,81.59
2023-01-24T18:39:42.012Z,81.50
2023-01-24T18:42:45.400Z,81.46
2023-01-24T18:45:48.402Z,81.89
2023-01-24T18:48:52.227Z,81.84
2023-01-24T18:51:54.871Z,81.90
2023-01-24T18:54:57.599Z,81.75
2023-01-24T18:58:00.500Z,82.02
2023-01-24T19:01:20.158Z,82.24
2023-01-24T19:04:23.478Z,82.52
2023-01-24T19:07:26.444Z,82.69
2023-01-24T19:10:31.102Z,82.34
2023-01-24T19:13:34.917Z,82.41
2023-01-24T19:16:40.932Z,82.71
2023-01-24T19:19:44.164Z,82.79
2023-01-24T19:22:47.421Z,83.01
2023-01-24T19:25:50.148Z,82.96
2023-01-24T19:28:55.852Z,83.22
2023-01-24T19:31:58.926Z,83.36
2023-01-24T19:35:01.910Z,83.32
2023-01-24T19:38:04.719Z,83.74
2023-01-24T19:41:10.584Z,84.08
2023-01-24T19:44:22.324Z,83.51
2023-01-24T19:47:25.719Z,83.35
2023-01-24T19:50:31.038Z,83.73
2023-01-24T19:53:34.785Z,83.58
2023-01-24T19:56:37.853Z,83.76
2023-01-24T19:59:41.379Z,83.39
2023-01-24T20:02:47.237Z,83.65
2023-01-24T20:05:50.294Z,83.92
2023-01-24T20:08:57.001Z,83.97
2023-01-24T20:11:59.870Z,83.64
2023-01-24T20:15:02.661Z,83.63
2023-01-24T20:18:05.810Z,83.77
2023-01-24T20:21:12.997Z,84.25
2023-01-24T20:24:16.277Z,84.41
2023-01-24T20:27:18.899Z,84.50
2023-01-24T20:30:22.724Z,84.45
2023-01-24T20:33:25.927Z,84.33
2023-01-24T20:36:28.586Z,84.09
2023-01-24T20:39:31.370Z,84.10
2023-01-24T20:42:35.665Z,84.06
2023-01-24T20:45:38.818Z,83.91
2023-01-24T20:48:41.661Z,83.88
2023-01-24T20:51:44.496Z,83.50
2023-01-24T20:54:47.663Z,83.79
2023-01-24T20:57:50.263Z,83.79
2023-01-24T21:00:54.244Z,83.77
2023-01-24T21:04:09.104Z,83.78
2023-01-24T21:07:12.062Z,83.99
2023-01-24T21:10:15.889Z,84.16
2023-01-24T21:13:19.629Z,83.99
2023-01-24T21:16:23.540Z,84.00
2023-01-24T21:19:27.264Z,83.82
2023-01-24T21:22:29.900Z,83.96
2023-01-24T21:25:35.001Z,83.97
2023-01-24T21:28:38.312Z,84.19
2023-01-24T21:31:41.390Z,84.13
2023-01-24T21:34:43.826Z,84.00
2023-01-24T21:37:46.921Z,83.55
2023-01-24T21:41:09.902Z,83.88
2023-01-24T21:44:12.480Z,84.28
2023-01-24T21:47:17.423Z,84.25
2023-01-24T21:50:20.448Z,84.23
2023-01-24T21:53:43.381Z,84.02
2023-01-24T21:57:28.172Z,84.06
2023-01-24T22:00:32.582Z,83.83
2023-01-24T22:03:35.334Z,84.28
2023-01-24T22:06:38.011Z,84.20
2023-01-24T22:09:41.415Z,84.31
2023-01-24T22:12:44.006Z,84.37
2023-01-24T22:15:46.686Z,84.77
2023-01-24T22:18:49.820Z,84.86
2023-01-24T22:21:52.735Z,84.72
2023-01-24T22:25:27.073Z,85.32
2023-01-24T22:28:32.974Z,85.71
2023-01-24T22:31:35.733Z,85.82
2023-01-24T22:34:39.169Z,85.73
2023-01-24T22:37:43.861Z,85.96
2023-01-24T22:40:47.029Z,85.82
2023-01-24T22:43:49.989Z,85.96
2023-01-24T22:46:52.745Z,85.96
2023-01-24T22:49:55.368Z,86.15
2023-01-24T22:52:58.157Z,86.07
2023-01-24T22:56:03.617Z,86.27
2023-01-24T22:59:06.669Z,86.23
2023-01-24T23:02:09.668Z,86.33
2023-01-24T23:05:13.057Z,86.32
2023-01-24T23:08:16.899Z,86.47
2023-01-24T23:11:21.127Z,86.60
2023-01-24T23:14:42.331Z,86.44
2023-01-24T23:17:47.839Z,86.50
2023-01-24T23:21:12.969Z,86.92
2023-01-24T23:24:15.947Z,86.97
2023-01-24T23:27:21.069Z,86.56
2023-01-24T23:30:37.862Z,87.13
2023-01-24T23:33:44.303Z,86.98
2023-01-24T23:36:49.825Z,87.05
2023-01-24T23:39:52.789Z,86.96
2023-01-24T23:42:55.784Z,87.17
2023-01-24T23:45:58.360Z,87.18
2023-01-24T23:49:01.167Z,87.39
2023-01-24T23:52:04.979Z,87.14
2023-01-24T23:55:08.634Z,87.38
2023-01-24T23:58:11.451Z,87.81
